sensor_id;sensor_type;location;lat;lon;timestamp;P1;durP1;ratioP1;P2;durP2;ratioP2
13795;SDS011;40911;51.552;9.874;2023-02-28T00:07:16;4.10;;;3.70;;
13795;SDS011;40911;51.552;9.874;2023-02-28T00:09:37;4.97;;;3.78;;
13795;SDS011;40911;51.552;9.874;2023-02-28T00:11:59;4.40;;;4.00;;
13795;SDS011;40911;51.552;9.874;2023-02-28T00:14:23;4.65;;;4.25;;
13795;SDS011;40911;51.552;9.874;2023-02-28T00:16:45;7.15;;;4.40;;
13795;SDS011;40911;51.552;9.874;2023-02-28T00:19:06;4.25;;;3.92;;
13795;SDS011;40911;51.552;9.874;2023-02-28T00:23:51;5.72;;;4.63;;
13795;SDS011;40911;51.552;9.874;2023-02-28T00:26:12;4.60;;;4.20;;
13795;SDS011;40911;51.552;9.874;2023-02-28T00:28:34;4.70;;;4.30;;
13795;SDS011;40911;51.552;9.874;2023-02-28T00:30:55;4.78;;;4.40;;
13795;SDS011;40911;51.552;9.874;2023-02-28T00:33:17;4.85;;;4.45;;
13795;SDS011;40911;51.552;9.874;2023-02-28T00:35:39;5.32;;;4.85;;
13795;SDS011;40911;51.552;9.874;2023-02-28T00:40:23;6.03;;;4.72;;
13795;SDS011;40911;51.552;9.874;2023-02-28T00:42:45;4.97;;;4.57;;
13795;SDS011;40911;51.552;9.874;2023-02-28T00:45:07;4.95;;;4.47;;
13795;SDS011;40911;51.552;9.874;2023-02-28T00:47:29;4.75;;;4.40;;
13795;SDS011;40911;51.552;9.874;2023-02-28T00:49:50;4.63;;;4.20;;
13795;SDS011;40911;51.552;9.874;2023-02-28T00:52:12;7.28;;;4.65;;
13795;SDS011;40911;51.552;9.874;2023-02-28T00:54:33;6.25;;;4.65;;
13795;SDS011;40911;51.552;9.874;2023-02-28T00:56:56;5.07;;;4.68;;
13795;SDS011;40911;51.552;9.874;2023-02-28T00:59:18;5.85;;;4.35;;
13795;SDS011;40911;51.552;9.874;2023-02-28T01:04:02;4.93;;;4.63;;
13795;SDS011;40911;51.552;9.874;2023-02-28T01:06:23;4.88;;;4.38;;
13795;SDS011;40911;51.552;9.874;2023-02-28T01:08:45;6.18;;;5.03;;
13795;SDS011;40911;51.552;9.874;2023-02-28T01:11:07;5.18;;;4.72;;
13795;SDS011;40911;51.552;9.874;2023-02-28T01:13:31;4.90;;;4.40;;
13795;SDS011;40911;51.552;9.874;2023-02-28T01:15:54;4.82;;;4.43;;
13795;SDS011;40911;51.552;9.874;2023-02-28T01:18:17;4.65;;;4.28;;
13795;SDS011;40911;51.552;9.874;2023-02-28T01:20:39;5.00;;;4.50;;
13795;SDS011;40911;51.552;9.874;2023-02-28T01:25:22;4.95;;;4.45;;
13795;SDS011;40911;51.552;9.874;2023-02-28T01:27:43;4.85;;;4.45;;
13795;SDS011;40911;51.552;9.874;2023-02-28T01:32:29;4.72;;;4.43;;
13795;SDS011;40911;51.552;9.874;2023-02-28T01:34:50;4.80;;;4.40;;
13795;SDS011;40911;51.552;9.874;2023-02-28T01:37:12;5.32;;;4.68;;
13795;SDS011;40911;51.552;9.874;2023-02-28T01:39:33;6.10;;;4.50;;
13795;SDS011;40911;51.552;9.874;2023-02-28T01:41:55;4.70;;;4.32;;
13795;SDS011;40911;51.552;9.874;2023-02-28T01:47:17;4.60;;;4.30;;
13795;SDS011;40911;51.552;9.874;2023-02-28T01:49:39;6.72;;;4.35;;
13795;SDS011;40911;51.552;9.874;2023-02-28T01:54:24;4.40;;;4.20;;
13795;SDS011;40911;51.552;9.874;2023-02-28T01:56:49;5.10;;;4.40;;
13795;SDS011;40911;51.552;9.874;2023-02-28T01:59:17;4.97;;;4.57;;
13795;SDS011;40911;51.552;9.874;2023-02-28T02:01:43;4.47;;;4.10;;
13795;SDS011;40911;51.552;9.874;2023-02-28T02:06:29;4.57;;;4.07;;
13795;SDS011;40911;51.552;9.874;2023-02-28T02:08:55;5.20;;;4.50;;
13795;SDS011;40911;51.552;9.874;2023-02-28T02:11:17;4.80;;;4.40;;
13795;SDS011;40911;51.552;9.874;2023-02-28T02:13:45;5.05;;;4.63;;
13795;SDS011;40911;51.552;9.874;2023-02-28T02:16:28;9.80;;;5.75;;
13795;SDS011;40911;51.552;9.874;2023-02-28T02:18:57;7.60;;;5.90;;
13795;SDS011;40911;51.552;9.874;2023-02-28T02:24:42;6.03;;;5.10;;
13795;SDS011;40911;51.552;9.874;2023-02-28T02:27:28;6.40;;;5.18;;
13795;SDS011;40911;51.552;9.874;2023-02-28T02:30:21;8.90;;;5.60;;
13795;SDS011;40911;51.552;9.874;2023-02-28T02:33:10;5.88;;;5.20;;
13795;SDS011;40911;51.552;9.874;2023-02-28T02:35:49;9.27;;;5.40;;
13795;SDS011;40911;51.552;9.874;2023-02-28T02:38:17;6.72;;;5.50;;
13795;SDS011;40911;51.552;9.874;2023-02-28T02:40:50;9.02;;;6.20;;
13795;SDS011;40911;51.552;9.874;2023-02-28T02:43:30;7.50;;;5.50;;
13795;SDS011;40911;51.552;9.874;2023-02-28T02:45:56;6.13;;;5.60;;
13795;SDS011;40911;51.552;9.874;2023-02-28T02:48:24;6.55;;;5.75;;
13795;SDS011;40911;51.552;9.874;2023-02-28T02:50:49;6.50;;;5.57;;
13795;SDS011;40911;51.552;9.874;2023-02-28T02:53:14;5.32;;;4.82;;
13795;SDS011;40911;51.552;9.874;2023-02-28T02:55:40;4.68;;;4.38;;
13795;SDS011;40911;51.552;9.874;2023-02-28T02:58:04;4.95;;;4.55;;
13795;SDS011;40911;51.552;9.874;2023-02-28T03:00:29;5.20;;;4.70;;
13795;SDS011;40911;51.552;9.874;2023-02-28T03:02:55;5.35;;;4.93;;
13795;SDS011;40911;51.552;9.874;2023-02-28T03:05:18;5.72;;;5.22;;
13795;SDS011;40911;51.552;9.874;2023-02-28T03:07:43;5.50;;;5.10;;
13795;SDS011;40911;51.552;9.874;2023-02-28T03:12:50;5.30;;;4.90;;
13795;SDS011;40911;51.552;9.874;2023-02-28T03:15:19;8.43;;;6.45;;
13795;SDS011;40911;51.552;9.874;2023-02-28T03:17:47;8.70;;;7.20;;
13795;SDS011;40911;51.552;9.874;2023-02-28T03:20:26;7.03;;;6.20;;
13795;SDS011;40911;51.552;9.874;2023-02-28T03:22:59;6.43;;;5.82;;
13795;SDS011;40911;51.552;9.874;2023-02-28T03:25:30;6.10;;;5.28;;
13795;SDS011;40911;51.552;9.874;2023-02-28T03:28:00;5.03;;;4.63;;
13795;SDS011;40911;51.552;9.874;2023-02-28T03:30:27;6.00;;;5.40;;
13795;SDS011;40911;51.552;9.874;2023-02-28T03:32:56;8.27;;;4.75;;
13795;SDS011;40911;51.552;9.874;2023-02-28T03:35:22;6.35;;;5.55;;
13795;SDS011;40911;51.552;9.874;2023-02-28T03:37:46;8.50;;;6.35;;
13795;SDS011;40911;51.552;9.874;2023-02-28T03:40:13;7.55;;;6.85;;
13795;SDS011;40911;51.552;9.874;2023-02-28T03:42:39;9.15;;;7.00;;
13795;SDS011;40911;51.552;9.874;2023-02-28T03:45:04;7.40;;;6.68;;
13795;SDS011;40911;51.552;9.874;2023-02-28T03:47:31;10.10;;;7.10;;
13795;SDS011;40911;51.552;9.874;2023-02-28T03:49:59;5.72;;;5.25;;
13795;SDS011;40911;51.552;9.874;2023-02-28T03:52:25;5.50;;;5.00;;
13795;SDS011;40911;51.552;9.874;2023-02-28T03:54:52;6.68;;;4.90;;
13795;SDS011;40911;51.552;9.874;2023-02-28T03:57:20;5.32;;;4.82;;
13795;SDS011;40911;51.552;9.874;2023-02-28T03:59:47;5.10;;;4.70;;
13795;SDS011;40911;51.552;9.874;2023-02-28T04:02:13;5.55;;;5.15;;
13795;SDS011;40911;51.552;9.874;2023-02-28T04:04:35;5.75;;;5.18;;
13795;SDS011;40911;51.552;9.874;2023-02-28T04:09:22;5.40;;;4.90;;
13795;SDS011;40911;51.552;9.874;2023-02-28T04:11:44;4.97;;;4.50;;
13795;SDS011;40911;51.552;9.874;2023-02-28T04:14:11;5.13;;;4.53;;
13795;SDS011;40911;51.552;9.874;2023-02-28T04:16:33;4.78;;;4.03;;
13795;SDS011;40911;51.552;9.874;2023-02-28T04:18:56;4.70;;;4.40;;
13795;SDS011;40911;51.552;9.874;2023-02-28T04:21:22;4.80;;;4.15;;
13795;SDS011;40911;51.552;9.874;2023-02-28T04:23:43;4.93;;;4.53;;
13795;SDS011;40911;51.552;9.874;2023-02-28T04:26:05;4.93;;;4.63;;
13795;SDS011;40911;51.552;9.874;2023-02-28T04:28:27;5.30;;;4.65;;
13795;SDS011;40911;51.552;9.874;2023-02-28T04:30:54;6.40;;;4.65;;
13795;SDS011;40911;51.552;9.874;2023-02-28T04:33:16;4.70;;;4.30;;
13795;SDS011;40911;51.552;9.874;2023-02-28T04:35:38;4.10;;;3.90;;
13795;SDS011;40911;51.552;9.874;2023-02-28T04:38:00;4.82;;;4.38;;
13795;SDS011;40911;51.552;9.874;2023-02-28T04:40:21;4.60;;;4.30;;
13795;SDS011;40911;51.552;9.874;2023-02-28T04:42:43;4.47;;;4.18;;
13795;SDS011;40911;51.552;9.874;2023-02-28T04:45:05;4.93;;;4.40;;
13795;SDS011;40911;51.552;9.874;2023-02-28T04:47:31;4.43;;;4.10;;
13795;SDS011;40911;51.552;9.874;2023-02-28T04:49:53;5.10;;;4.50;;
13795;SDS011;40911;51.552;9.874;2023-02-28T04:52:14;4.63;;;4.22;;
13795;SDS011;40911;51.552;9.874;2023-02-28T04:54:36;4.57;;;4.18;;
13795;SDS011;40911;51.552;9.874;2023-02-28T04:56:58;4.78;;;4.38;;
13795;SDS011;40911;51.552;9.874;2023-02-28T04:59:21;4.35;;;3.92;;
13795;SDS011;40911;51.552;9.874;2023-02-28T05:01:45;4.68;;;4.30;;
13795;SDS011;40911;51.552;9.874;2023-02-28T05:04:09;4.90;;;4.40;;
13795;SDS011;40911;51.552;9.874;2023-02-28T05:06:31;5.93;;;4.32;;
13795;SDS011;40911;51.552;9.874;2023-02-28T05:08:54;5.68;;;4.32;;
13795;SDS011;40911;51.552;9.874;2023-02-28T05:13:38;6.00;;;4.60;;
13795;SDS011;40911;51.552;9.874;2023-02-28T05:16:00;4.65;;;4.15;;
13795;SDS011;40911;51.552;9.874;2023-02-28T05:18:21;4.65;;;4.20;;
13795;SDS011;40911;51.552;9.874;2023-02-28T05:20:44;5.28;;;4.00;;
13795;SDS011;40911;51.552;9.874;2023-02-28T05:23:06;5.00;;;4.30;;
13795;SDS011;40911;51.552;9.874;2023-02-28T05:25:30;4.43;;;4.07;;
13795;SDS011;40911;51.552;9.874;2023-02-28T05:27:51;4.72;;;4.22;;
13795;SDS011;40911;51.552;9.874;2023-02-28T05:30:13;4.80;;;4.40;;
13795;SDS011;40911;51.552;9.874;2023-02-28T05:32:35;4.43;;;4.03;;
13795;SDS011;40911;51.552;9.874;2023-02-28T05:34:57;4.85;;;4.45;;
13795;SDS011;40911;51.552;9.874;2023-02-28T05:37:19;5.00;;;4.60;;
13795;SDS011;40911;51.552;9.874;2023-02-28T05:39:41;4.47;;;4.00;;
13795;SDS011;40911;51.552;9.874;2023-02-28T05:42:03;4.55;;;4.15;;
13795;SDS011;40911;51.552;9.874;2023-02-28T05:44:24;4.63;;;4.00;;
13795;SDS011;40911;51.552;9.874;2023-02-28T05:46:46;5.05;;;4.20;;
13795;SDS011;40911;51.552;9.874;2023-02-28T05:49:07;6.55;;;4.47;;
13795;SDS011;40911;51.552;9.874;2023-02-28T05:51:29;5.05;;;4.55;;
13795;SDS011;40911;51.552;9.874;2023-02-28T05:53:52;5.45;;;4.32;;
13795;SDS011;40911;51.552;9.874;2023-02-28T05:56:13;4.60;;;4.20;;
13795;SDS011;40911;51.552;9.874;2023-02-28T05:58:35;4.90;;;4.32;;
13795;SDS011;40911;51.552;9.874;2023-02-28T06:00:57;5.00;;;4.50;;
13795;SDS011;40911;51.552;9.874;2023-02-28T06:05:40;6.50;;;4.32;;
13795;SDS011;40911;51.552;9.874;2023-02-28T06:08:01;4.82;;;4.53;;
13795;SDS011;40911;51.552;9.874;2023-02-28T06:10:24;5.07;;;4.25;;
13795;SDS011;40911;51.552;9.874;2023-02-28T06:12:46;4.38;;;4.07;;
13795;SDS011;40911;51.552;9.874;2023-02-28T06:15:09;4.68;;;4.25;;
13795;SDS011;40911;51.552;9.874;2023-02-28T06:17:33;5.45;;;4.07;;
13795;SDS011;40911;51.552;9.874;2023-02-28T06:19:55;5.20;;;4.28;;
13795;SDS011;40911;51.552;9.874;2023-02-28T06:22:17;4.85;;;4.38;;
13795;SDS011;40911;51.552;9.874;2023-02-28T06:24:38;4.50;;;4.10;;
13795;SDS011;40911;51.552;9.874;2023-02-28T06:27:01;4.68;;;4.28;;
13795;SDS011;40911;51.552;9.874;2023-02-28T06:29:25;4.88;;;4.13;;
13795;SDS011;40911;51.552;9.874;2023-02-28T06:34:08;4.60;;;4.30;;
13795;SDS011;40911;51.552;9.874;2023-02-28T06:36:31;5.00;;;4.50;;
13795;SDS011;40911;51.552;9.874;2023-02-28T06:38:53;5.38;;;4.85;;
13795;SDS011;40911;51.552;9.874;2023-02-28T06:41:16;9.25;;;5.53;;
13795;SDS011;40911;51.552;9.874;2023-02-28T06:43:41;10.05;;;6.53;;
13795;SDS011;40911;51.552;9.874;2023-02-28T06:46:04;17.58;;;8.30;;
13795;SDS011;40911;51.552;9.874;2023-02-28T06:48:27;31.80;;;12.65;;
13795;SDS011;40911;51.552;9.874;2023-02-28T06:50:49;30.08;;;13.48;;
13795;SDS011;40911;51.552;9.874;2023-02-28T06:53:10;24.15;;;11.23;;
13795;SDS011;40911;51.552;9.874;2023-02-28T06:55:32;21.85;;;9.88;;
13795;SDS011;40911;51.552;9.874;2023-02-28T06:57:53;16.38;;;9.20;;
13795;SDS011;40911;51.552;9.874;2023-02-28T07:00:17;11.70;;;6.95;;
13795;SDS011;40911;51.552;9.874;2023-02-28T07:02:39;7.45;;;6.22;;
13795;SDS011;40911;51.552;9.874;2023-02-28T07:05:01;12.85;;;5.90;;
13795;SDS011;40911;51.552;9.874;2023-02-28T07:07:23;5.32;;;4.82;;
13795;SDS011;40911;51.552;9.874;2023-02-28T07:09:45;6.65;;;4.18;;
13795;SDS011;40911;51.552;9.874;2023-02-28T07:12:06;5.97;;;4.32;;
13795;SDS011;40911;51.552;9.874;2023-02-28T07:14:28;8.27;;;5.38;;
13795;SDS011;40911;51.552;9.874;2023-02-28T07:16:51;5.35;;;4.80;;
13795;SDS011;40911;51.552;9.874;2023-02-28T07:19:12;6.15;;;4.40;;
13795;SDS011;40911;51.552;9.874;2023-02-28T07:21:34;5.30;;;4.57;;
13795;SDS011;40911;51.552;9.874;2023-02-28T07:23:56;6.18;;;4.47;;
13795;SDS011;40911;51.552;9.874;2023-02-28T07:31:03;6.13;;;4.88;;
13795;SDS011;40911;51.552;9.874;2023-02-28T07:33:27;4.43;;;4.03;;
13795;SDS011;40911;51.552;9.874;2023-02-28T07:35:48;6.97;;;4.40;;
13795;SDS011;40911;51.552;9.874;2023-02-28T07:38:10;4.70;;;4.30;;
13795;SDS011;40911;51.552;9.874;2023-02-28T07:40:33;4.63;;;4.20;;
13795;SDS011;40911;51.552;9.874;2023-02-28T07:42:55;4.53;;;4.13;;
13795;SDS011;40911;51.552;9.874;2023-02-28T07:45:17;5.22;;;4.20;;
13795;SDS011;40911;51.552;9.874;2023-02-28T07:47:39;5.40;;;3.90;;
13795;SDS011;40911;51.552;9.874;2023-02-28T07:50:04;4.30;;;3.80;;
13795;SDS011;40911;51.552;9.874;2023-02-28T07:52:27;4.05;;;3.75;;
13795;SDS011;40911;51.552;9.874;2023-02-28T07:54:48;6.25;;;3.83;;
13795;SDS011;40911;51.552;9.874;2023-02-28T07:57:10;4.97;;;4.28;;
13795;SDS011;40911;51.552;9.874;2023-02-28T07:59:31;5.82;;;4.50;;
13795;SDS011;40911;51.552;9.874;2023-02-28T08:01:53;4.57;;;3.90;;
13795;SDS011;40911;51.552;9.874;2023-02-28T08:04:14;5.32;;;4.18;;
13795;SDS011;40911;51.552;9.874;2023-02-28T08:06:37;4.97;;;3.95;;
13795;SDS011;40911;51.552;9.874;2023-02-28T08:08:59;6.35;;;4.10;;
13795;SDS011;40911;51.552;9.874;2023-02-28T08:11:20;3.97;;;3.60;;
13795;SDS011;40911;51.552;9.874;2023-02-28T08:13:42;4.85;;;4.00;;
13795;SDS011;40911;51.552;9.874;2023-02-28T08:16:04;4.30;;;4.00;;
13795;SDS011;40911;51.552;9.874;2023-02-28T08:18:26;3.78;;;3.42;;
13795;SDS011;40911;51.552;9.874;2023-02-28T08:20:48;4.38;;;3.97;;
13795;SDS011;40911;51.552;9.874;2023-02-28T08:23:11;4.47;;;4.00;;
13795;SDS011;40911;51.552;9.874;2023-02-28T08:25:32;6.05;;;4.20;;
13795;SDS011;40911;51.552;9.874;2023-02-28T08:27:54;4.65;;;4.25;;
13795;SDS011;40911;51.552;9.874;2023-02-28T08:30:16;5.82;;;4.25;;
13795;SDS011;40911;51.552;9.874;2023-02-28T08:32:37;5.32;;;4.10;;
13795;SDS011;40911;51.552;9.874;2023-02-28T08:34:59;4.55;;;3.70;;
13795;SDS011;40911;51.552;9.874;2023-02-28T08:37:21;4.35;;;3.95;;
13795;SDS011;40911;51.552;9.874;2023-02-28T08:39:44;4.60;;;3.88;;
13795;SDS011;40911;51.552;9.874;2023-02-28T08:42:06;4.70;;;4.22;;
13795;SDS011;40911;51.552;9.874;2023-02-28T08:44:27;4.30;;;3.90;;
13795;SDS011;40911;51.552;9.874;2023-02-28T08:46:49;4.60;;;4.10;;
13795;SDS011;40911;51.552;9.874;2023-02-28T08:49:10;4.47;;;3.88;;
13795;SDS011;40911;51.552;9.874;2023-02-28T08:51:32;4.30;;;3.97;;
13795;SDS011;40911;51.552;9.874;2023-02-28T08:53:54;4.32;;;3.67;;
13795;SDS011;40911;51.552;9.874;2023-02-28T08:56:18;4.97;;;3.90;;
13795;SDS011;40911;51.552;9.874;2023-02-28T08:58:40;5.22;;;4.07;;
13795;SDS011;40911;51.552;9.874;2023-02-28T09:01:07;6.07;;;4.38;;
13795;SDS011;40911;51.552;9.874;2023-02-28T09:03:30;4.78;;;3.97;;
13795;SDS011;40911;51.552;9.874;2023-02-28T09:05:52;4.63;;;3.63;;
13795;SDS011;40911;51.552;9.874;2023-02-28T09:08:15;3.95;;;3.50;;
13795;SDS011;40911;51.552;9.874;2023-02-28T09:10:36;4.35;;;3.95;;
13795;SDS011;40911;51.552;9.874;2023-02-28T09:12:59;4.45;;;4.00;;
13795;SDS011;40911;51.552;9.874;2023-02-28T09:15:21;4.35;;;3.88;;
13795;SDS011;40911;51.552;9.874;2023-02-28T09:17:42;4.70;;;3.85;;
13795;SDS011;40911;51.552;9.874;2023-02-28T09:20:04;3.50;;;3.30;;
13795;SDS011;40911;51.552;9.874;2023-02-28T09:22:27;5.20;;;4.15;;
13795;SDS011;40911;51.552;9.874;2023-02-28T09:24:48;6.90;;;4.07;;
13795;SDS011;40911;51.552;9.874;2023-02-28T09:27:10;4.50;;;3.97;;
13795;SDS011;40911;51.552;9.874;2023-02-28T09:29:33;4.38;;;3.95;;
13795;SDS011;40911;51.552;9.874;2023-02-28T09:31:55;4.45;;;3.75;;
13795;SDS011;40911;51.552;9.874;2023-02-28T09:34:18;4.35;;;3.85;;
13795;SDS011;40911;51.552;9.874;2023-02-28T09:39:01;4.28;;;3.85;;
13795;SDS011;40911;51.552;9.874;2023-02-28T09:41:24;4.90;;;3.90;;
13795;SDS011;40911;51.552;9.874;2023-02-28T09:43:51;5.40;;;4.13;;
13795;SDS011;40911;51.552;9.874;2023-02-28T09:46:25;6.32;;;4.15;;
13795;SDS011;40911;51.552;9.874;2023-02-28T09:48:51;4.35;;;3.63;;
13795;SDS011;40911;51.552;9.874;2023-02-28T09:51:21;4.50;;;4.10;;
13795;SDS011;40911;51.552;9.874;2023-02-28T09:53:54;3.65;;;3.33;;
13795;SDS011;40911;51.552;9.874;2023-02-28T09:58:46;3.60;;;3.40;;
13795;SDS011;40911;51.552;9.874;2023-02-28T10:01:18;4.30;;;3.92;;
13795;SDS011;40911;51.552;9.874;2023-02-28T10:03:48;4.20;;;3.88;;
13795;SDS011;40911;51.552;9.874;2023-02-28T10:06:17;4.70;;;4.15;;
13795;SDS011;40911;51.552;9.874;2023-02-28T10:08:41;4.55;;;4.13;;
13795;SDS011;40911;51.552;9.874;2023-02-28T10:11:09;4.35;;;3.95;;
13795;SDS011;40911;51.552;9.874;2023-02-28T10:13:34;5.10;;;4.13;;
13795;SDS011;40911;51.552;9.874;2023-02-28T10:15:58;4.20;;;3.90;;
13795;SDS011;40911;51.552;9.874;2023-02-28T10:18:24;5.32;;;4.25;;
13795;SDS011;40911;51.552;9.874;2023-02-28T10:20:49;7.00;;;3.97;;
13795;SDS011;40911;51.552;9.874;2023-02-28T10:23:13;4.53;;;4.10;;
13795;SDS011;40911;51.552;9.874;2023-02-28T10:25:40;4.47;;;4.05;;
13795;SDS011;40911;51.552;9.874;2023-02-28T10:28:09;7.15;;;4.10;;
13795;SDS011;40911;51.552;9.874;2023-02-28T10:30:33;4.60;;;4.20;;
13795;SDS011;40911;51.552;9.874;2023-02-28T10:32:55;4.60;;;4.20;;
13795;SDS011;40911;51.552;9.874;2023-02-28T10:35:18;4.65;;;4.20;;
13795;SDS011;40911;51.552;9.874;2023-02-28T10:37:44;6.50;;;4.45;;
13795;SDS011;40911;51.552;9.874;2023-02-28T10:40:10;7.40;;;4.72;;
13795;SDS011;40911;51.552;9.874;2023-02-28T10:42:54;4.50;;;4.10;;
13795;SDS011;40911;51.552;9.874;2023-02-28T10:45:17;4.40;;;3.90;;
13795;SDS011;40911;51.552;9.874;2023-02-28T10:47:41;6.30;;;4.45;;
13795;SDS011;40911;51.552;9.874;2023-02-28T10:50:26;4.60;;;4.20;;
13795;SDS011;40911;51.552;9.874;2023-02-28T10:52:51;4.50;;;4.10;;
13795;SDS011;40911;51.552;9.874;2023-02-28T10:55:15;4.43;;;4.03;;
13795;SDS011;40911;51.552;9.874;2023-02-28T10:57:41;5.90;;;4.80;;
13795;SDS011;40911;51.552;9.874;2023-02-28T11:00:08;4.60;;;4.20;;
13795;SDS011;40911;51.552;9.874;2023-02-28T11:02:36;5.15;;;4.50;;
13795;SDS011;40911;51.552;9.874;2023-02-28T11:05:00;5.80;;;4.38;;
13795;SDS011;40911;51.552;9.874;2023-02-28T11:07:22;6.57;;;4.40;;
13795;SDS011;40911;51.552;9.874;2023-02-28T11:09:48;6.80;;;4.50;;
13795;SDS011;40911;51.552;9.874;2023-02-28T11:12:19;5.25;;;4.60;;
13795;SDS011;40911;51.552;9.874;2023-02-28T11:17:13;4.63;;;4.07;;
13795;SDS011;40911;51.552;9.874;2023-02-28T11:19:40;5.18;;;4.00;;
13795;SDS011;40911;51.552;9.874;2023-02-28T11:22:06;5.88;;;4.30;;
13795;SDS011;40911;51.552;9.874;2023-02-28T11:26:52;6.25;;;3.95;;
13795;SDS011;40911;51.552;9.874;2023-02-28T11:29:19;5.05;;;4.65;;
13795;SDS011;40911;51.552;9.874;2023-02-28T11:31:42;6.50;;;4.20;;
13795;SDS011;40911;51.552;9.874;2023-02-28T11:34:11;5.38;;;4.00;;
13795;SDS011;40911;51.552;9.874;2023-02-28T11:36:44;9.15;;;4.30;;
13795;SDS011;40911;51.552;9.874;2023-02-28T11:39:09;5.20;;;4.10;;
13795;SDS011;40911;51.552;9.874;2023-02-28T11:41:37;4.35;;;4.00;;
13795;SDS011;40911;51.552;9.874;2023-02-28T11:44:27;4.90;;;4.40;;
13795;SDS011;40911;51.552;9.874;2023-02-28T11:46:57;5.43;;;4.18;;
13795;SDS011;40911;51.552;9.874;2023-02-28T11:49:25;6.88;;;4.13;;
13795;SDS011;40911;51.552;9.874;2023-02-28T11:51:56;5.07;;;4.68;;
13795;SDS011;40911;51.552;9.874;2023-02-28T11:54:32;5.22;;;4.18;;
13795;SDS011;40911;51.552;9.874;2023-02-28T11:57:08;5.10;;;4.70;;
13795;SDS011;40911;51.552;9.874;2023-02-28T11:59:47;6.47;;;4.20;;
13795;SDS011;40911;51.552;9.874;2023-02-28T12:02:22;5.72;;;4.07;;
13795;SDS011;40911;51.552;9.874;2023-02-28T12:04:48;4.43;;;4.03;;
13795;SDS011;40911;51.552;9.874;2023-02-28T12:07:16;8.45;;;4.65;;
13795;SDS011;40911;51.552;9.874;2023-02-28T12:09:51;5.95;;;5.05;;
13795;SDS011;40911;51.552;9.874;2023-02-28T12:12:21;5.55;;;4.25;;
13795;SDS011;40911;51.552;9.874;2023-02-28T12:14:53;4.72;;;4.32;;
13795;SDS011;40911;51.552;9.874;2023-02-28T12:17:39;4.63;;;4.15;;
13795;SDS011;40911;51.552;9.874;2023-02-28T12:20:13;4.68;;;4.28;;
13795;SDS011;40911;51.552;9.874;2023-02-28T12:22:46;6.90;;;4.88;;
13795;SDS011;40911;51.552;9.874;2023-02-28T12:25:24;5.45;;;4.35;;
13795;SDS011;40911;51.552;9.874;2023-02-28T12:28:08;5.65;;;4.47;;
13795;SDS011;40911;51.552;9.874;2023-02-28T12:30:35;4.50;;;4.10;;
13795;SDS011;40911;51.552;9.874;2023-02-28T12:33:03;7.65;;;4.53;;
13795;SDS011;40911;51.552;9.874;2023-02-28T12:35:28;4.93;;;4.20;;
13795;SDS011;40911;51.552;9.874;2023-02-28T12:37:55;5.28;;;4.07;;
13795;SDS011;40911;51.552;9.874;2023-02-28T12:40:23;4.43;;;4.03;;
13795;SDS011;40911;51.552;9.874;2023-02-28T12:42:48;5.28;;;3.80;;
13795;SDS011;40911;51.552;9.874;2023-02-28T12:45:13;6.03;;;4.15;;
13795;SDS011;40911;51.552;9.874;2023-02-28T12:47:42;4.25;;;3.85;;
13795;SDS011;40911;51.552;9.874;2023-02-28T12:50:06;4.45;;;4.07;;
13795;SDS011;40911;51.552;9.874;2023-02-28T12:52:34;6.90;;;4.10;;
13795;SDS011;40911;51.552;9.874;2023-02-28T12:55:03;5.75;;;4.38;;
13795;SDS011;40911;51.552;9.874;2023-02-28T12:57:31;8.95;;;4.47;;
13795;SDS011;40911;51.552;9.874;2023-02-28T12:59:58;4.95;;;4.20;;
13795;SDS011;40911;51.552;9.874;2023-02-28T13:05:32;4.47;;;4.07;;
13795;SDS011;40911;51.552;9.874;2023-02-28T13:08:20;4.20;;;3.80;;
13795;SDS011;40911;51.552;9.874;2023-02-28T13:10:55;5.50;;;3.90;;
13795;SDS011;40911;51.552;9.874;2023-02-28T13:15:40;4.90;;;4.15;;
13795;SDS011;40911;51.552;9.874;2023-02-28T13:18:26;5.43;;;4.40;;
13795;SDS011;40911;51.552;9.874;2023-02-28T13:20:51;8.18;;;5.25;;
13795;SDS011;40911;51.552;9.874;2023-02-28T13:26:00;5.28;;;4.18;;
13795;SDS011;40911;51.552;9.874;2023-02-28T13:31:27;4.50;;;4.10;;
13795;SDS011;40911;51.552;9.874;2023-02-28T13:36:37;7.07;;;4.55;;
13795;SDS011;40911;51.552;9.874;2023-02-28T13:38:58;6.68;;;4.47;;
13795;SDS011;40911;51.552;9.874;2023-02-28T13:44:03;4.85;;;4.10;;
13795;SDS011;40911;51.552;9.874;2023-02-28T13:46:26;5.22;;;4.43;;
13795;SDS011;40911;51.552;9.874;2023-02-28T13:48:48;4.65;;;4.25;;
13795;SDS011;40911;51.552;9.874;2023-02-28T13:51:35;4.97;;;4.47;;
13795;SDS011;40911;51.552;9.874;2023-02-28T13:54:02;6.97;;;3.97;;
13795;SDS011;40911;51.552;9.874;2023-02-28T13:56:34;5.18;;;4.43;;
13795;SDS011;40911;51.552;9.874;2023-02-28T13:59:06;7.32;;;4.40;;
13795;SDS011;40911;51.552;9.874;2023-02-28T14:01:52;5.72;;;4.10;;
13795;SDS011;40911;51.552;9.874;2023-02-28T14:04:33;6.10;;;4.10;;
13795;SDS011;40911;51.552;9.874;2023-02-28T14:07:17;6.32;;;4.18;;
13795;SDS011;40911;51.552;9.874;2023-02-28T14:09:40;4.72;;;4.10;;
13795;SDS011;40911;51.552;9.874;2023-02-28T14:17:50;5.05;;;4.63;;
13795;SDS011;40911;51.552;9.874;2023-02-28T14:20:13;4.47;;;4.07;;
13795;SDS011;40911;51.552;9.874;2023-02-28T14:22:45;5.07;;;4.20;;
13795;SDS011;40911;51.552;9.874;2023-02-28T14:25:18;6.20;;;4.97;;
13795;SDS011;40911;51.552;9.874;2023-02-28T14:27:53;5.43;;;4.68;;
13795;SDS011;40911;51.552;9.874;2023-02-28T14:30:40;6.60;;;5.72;;
13795;SDS011;40911;51.552;9.874;2023-02-28T14:33:22;6.82;;;5.38;;
13795;SDS011;40911;51.552;9.874;2023-02-28T14:35:54;4.85;;;4.30;;
13795;SDS011;40911;51.552;9.874;2023-02-28T14:38:25;4.97;;;4.40;;
13795;SDS011;40911;51.552;9.874;2023-02-28T14:40:49;6.30;;;4.50;;
13795;SDS011;40911;51.552;9.874;2023-02-28T14:43:19;7.35;;;5.05;;
13795;SDS011;40911;51.552;9.874;2023-02-28T14:45:42;5.07;;;4.53;;
13795;SDS011;40911;51.552;9.874;2023-02-28T14:48:04;9.73;;;5.78;;
13795;SDS011;40911;51.552;9.874;2023-02-28T14:50:31;5.18;;;4.68;;
13795;SDS011;40911;51.552;9.874;2023-02-28T14:52:55;5.20;;;4.70;;
13795;SDS011;40911;51.552;9.874;2023-02-28T14:55:18;5.72;;;4.68;;
13795;SDS011;40911;51.552;9.874;2023-02-28T14:57:50;5.10;;;4.53;;
13795;SDS011;40911;51.552;9.874;2023-02-28T15:00:14;6.15;;;5.07;;
13795;SDS011;40911;51.552;9.874;2023-02-28T15:02:38;8.70;;;6.32;;
13795;SDS011;40911;51.552;9.874;2023-02-28T15:05:02;6.25;;;4.93;;
13795;SDS011;40911;51.552;9.874;2023-02-28T15:07:40;6.03;;;4.68;;
13795;SDS011;40911;51.552;9.874;2023-02-28T15:10:09;7.53;;;6.15;;
13795;SDS011;40911;51.552;9.874;2023-02-28T15:12:43;7.32;;;4.72;;
13795;SDS011;40911;51.552;9.874;2023-02-28T15:15:14;6.03;;;4.93;;
13795;SDS011;40911;51.552;9.874;2023-02-28T15:17:36;6.65;;;5.13;;
13795;SDS011;40911;51.552;9.874;2023-02-28T15:19:58;5.60;;;5.00;;
13795;SDS011;40911;51.552;9.874;2023-02-28T15:24:46;10.00;;;5.15;;
13795;SDS011;40911;51.552;9.874;2023-02-28T15:27:11;8.98;;;5.55;;
13795;SDS011;40911;51.552;9.874;2023-02-28T15:29:41;7.43;;;5.30;;
13795;SDS011;40911;51.552;9.874;2023-02-28T15:32:06;5.70;;;5.10;;
13795;SDS011;40911;51.552;9.874;2023-02-28T15:34:33;7.47;;;5.55;;
13795;SDS011;40911;51.552;9.874;2023-02-28T15:36:56;5.68;;;5.18;;
13795;SDS011;40911;51.552;9.874;2023-02-28T15:39:18;6.60;;;5.20;;
13795;SDS011;40911;51.552;9.874;2023-02-28T15:41:42;5.60;;;5.10;;
13795;SDS011;40911;51.552;9.874;2023-02-28T15:44:15;6.30;;;5.10;;
13795;SDS011;40911;51.552;9.874;2023-02-28T15:46:38;5.57;;;5.00;;
13795;SDS011;40911;51.552;9.874;2023-02-28T15:49:01;6.65;;;4.93;;
13795;SDS011;40911;51.552;9.874;2023-02-28T15:53:47;5.88;;;5.28;;
13795;SDS011;40911;51.552;9.874;2023-02-28T15:56:16;5.60;;;5.03;;
13795;SDS011;40911;51.552;9.874;2023-02-28T15:58:44;5.95;;;5.03;;
13795;SDS011;40911;51.552;9.874;2023-02-28T16:01:15;6.13;;;4.93;;